sensor_id;sensor_type;location;lat;lon;timestamp;pressure;altitude;pressure_sealevel;temperature;humidity
56456;BME280;42354;53.218;6.564;2022-09-09T00:01:43;100403.59;;;14.86;100.00
56456;BME280;42354;53.218;6.564;2022-09-09T00:04:17;100402.22;;;14.80;100.00
56456;BME280;42354;53.218;6.564;2022-09-09T00:06:57;100396.06;;;14.78;100.00
56456;BME280;42354;53.218;6.564;2022-09-09T00:09:28;100393.56;;;14.75;100.00
56456;BME280;42354;53.218;6.564;2022-09-09T00:15:19;100382.94;;;14.61;100.00
56456;BME280;42354;53.218;6.564;2022-09-09T00:17:48;100398.88;;;14.65;100.00
56456;BME280;42354;53.218;6.564;2022-09-09T00:20:22;100390.84;;;14.64;100.00
56456;BME280;42354;53.218;6.564;2022-09-09T00:23:25;100386.78;;;14.58;100.00
56456;BME280;42354;53.218;6.564;2022-09-09T00:26:09;100378.00;;;14.55;100.00
56456;BME280;42354;53.218;6.564;2022-09-09T00:28:46;100380.59;;;14.56;100.00
56456;BME280;42354;53.218;6.564;2022-09-09T00:31:23;100381.47;;;14.57;100.00
56456;BME280;42354;53.218;6.564;2022-09-09T00:33:50;100381.47;;;14.57;100.00
56456;BME280;42354;53.218;6.564;2022-09-09T00:36:22;100375.28;;;14.55;100.00
56456;BME280;42354;53.218;6.564;2022-09-09T00:38:56;100374.44;;;14.54;100.00
56456;BME280;42354;53.218;6.564;2022-09-09T00:44:32;100374.66;;;14.51;100.00
56456;BME280;42354;53.218;6.564;2022-09-09T00:47:12;100372.06;;;14.49;100.00
56456;BME280;42354;53.218;6.564;2022-09-09T00:50:09;100374.16;;;14.46;100.00
56456;BME280;42354;53.218;6.564;2022-09-09T00:55:45;100369.97;;;14.42;100.00
56456;BME280;42354;53.218;6.564;2022-09-09T00:58:13;100364.63;;;14.40;100.00
56456;BME280;42354;53.218;6.564;2022-09-09T01:00:50;100358.69;;;14.35;100.00
56456;BME280;42354;53.218;6.564;2022-09-09T01:03:37;100361.66;;;14.32;100.00
56456;BME280;42354;53.218;6.564;2022-09-09T01:06:13;100354.63;;;14.30;100.00
56456;BME280;42354;53.218;6.564;2022-09-09T01:11:10;100359.53;;;14.25;100.00
56456;BME280;42354;53.218;6.564;2022-09-09T01:13:42;100356.69;;;14.26;100.00
56456;BME280;42354;53.218;6.564;2022-09-09T01:16:11;100364.09;;;14.24;100.00
56456;BME280;42354;53.218;6.564;2022-09-09T01:18:41;100357.19;;;14.20;100.00
56456;BME280;42354;53.218;6.564;2022-09-09T01:26:37;100357.41;;;14.17;100.00
56456;BME280;42354;53.218;6.564;2022-09-09T01:29:07;100356.56;;;14.16;100.00
56456;BME280;42354;53.218;6.564;2022-09-09T01:31:38;100352.22;;;14.14;100.00
56456;BME280;42354;53.218;6.564;2022-09-09T01:34:13;100362.34;;;14.12;100.00
56456;BME280;42354;53.218;6.564;2022-09-09T01:36:43;100354.19;;;14.12;100.00
56456;BME280;42354;53.218;6.564;2022-09-09T01:39:10;100356.03;;;14.11;100.00
56456;BME280;42354;53.218;6.564;2022-09-09T01:41:37;100349.63;;;14.12;100.00
56456;BME280;42354;53.218;6.564;2022-09-09T01:44:03;100361.34;;;14.13;100.00
56456;BME280;42354;53.218;6.564;2022-09-09T01:46:28;100348.66;;;14.13;100.00
56456;BME280;42354;53.218;6.564;2022-09-09T01:48:56;100357.66;;;14.14;100.00
56456;BME280;42354;53.218;6.564;2022-09-09T01:51:23;100351.47;;;14.12;100.00
56456;BME280;42354;53.218;6.564;2022-09-09T01:53:48;100357.66;;;14.14;100.00
56456;BME280;42354;53.218;6.564;2022-09-09T02:02:05;100360.38;;;14.14;100.00
56456;BME280;42354;53.218;6.564;2022-09-09T02:04:37;100350.38;;;14.14;100.00
56456;BME280;42354;53.218;6.564;2022-09-09T02:07:08;100358.28;;;14.17;100.00
56456;BME280;42354;53.218;6.564;2022-09-09T02:09:36;100356.56;;;14.16;100.00
56456;BME280;42354;53.218;6.564;2022-09-09T02:12:21;100355.44;;;14.19;100.00
56456;BME280;42354;53.218;6.564;2022-09-09T02:14:55;100357.06;;;14.22;100.00
56456;BME280;42354;53.218;6.564;2022-09-09T02:17:30;100355.09;;;14.24;100.00
56456;BME280;42354;53.218;6.564;2022-09-09T02:20:10;100361.13;;;14.27;100.00
56456;BME280;42354;53.218;6.564;2022-09-09T02:22:38;100359.91;;;14.31;100.00
56456;BME280;42354;53.218;6.564;2022-09-09T02:25:07;100360.66;;;14.33;100.00
56456;BME280;42354;53.218;6.564;2022-09-09T02:27:33;100351.41;;;14.36;100.00
56456;BME280;42354;53.218;6.564;2022-09-09T02:30:00;100352.28;;;14.36;100.00
56456;BME280;42354;53.218;6.564;2022-09-09T02:32:28;100342.28;;;14.37;100.00
56456;BME280;42354;53.218;6.564;2022-09-09T02:35:03;100354.75;;;14.39;100.00
56456;BME280;42354;53.218;6.564;2022-09-09T02:37:37;100355.75;;;14.38;100.00
56456;BME280;42354;53.218;6.564;2022-09-09T02:40:10;100351.06;;;14.40;100.00
56456;BME280;42354;53.218;6.564;2022-09-09T02:42:44;100355.63;;;14.40;100.00
56456;BME280;42354;53.218;6.564;2022-09-09T02:45:12;100357.25;;;14.42;100.00
56456;BME280;42354;53.218;6.564;2022-09-09T02:48:10;100356.47;;;14.40;100.00
56456;BME280;42354;53.218;6.564;2022-09-09T02:51:25;100348.59;;;14.37;100.00
56456;BME280;42354;53.218;6.564;2022-09-09T02:54:17;100358.34;;;14.40;100.00
56456;BME280;42354;53.218;6.564;2022-09-09T02:56:42;100354.53;;;14.42;100.00
56456;BME280;42354;53.218;6.564;2022-09-09T02:59:09;100349.00;;;14.44;100.00
56456;BME280;42354;53.218;6.564;2022-09-09T03:01:35;100344.31;;;14.46;100.00
56456;BME280;42354;53.218;6.564;2022-09-09T03:04:02;100347.88;;;14.46;100.00
56456;BME280;42354;53.218;6.564;2022-09-09T03:06:27;100354.19;;;14.47;100.00
56456;BME280;42354;53.218;6.564;2022-09-09T03:08:53;100362.19;;;14.48;100.00
56456;BME280;42354;53.218;6.564;2022-09-09T03:11:18;100353.31;;;14.46;100.00
56456;BME280;42354;53.218;6.564;2022-09-09T03:13:43;100349.75;;;14.46;100.00
56456;BME280;42354;53.218;6.564;2022-09-09T03:16:09;100346.16;;;14.45;100.00
56456;BME280;42354;53.218;6.564;2022-09-09T03:18:34;100349.63;;;14.47;100.00
56456;BME280;42354;53.218;6.564;2022-09-09T03:21:00;100340.63;;;14.47;100.00
56456;BME280;42354;53.218;6.564;2022-09-09T03:23:26;100342.22;;;14.49;100.00
56456;BME280;42354;53.218;6.564;2022-09-09T03:25:52;100342.22;;;14.49;100.00
56456;BME280;42354;53.218;6.564;2022-09-09T03:28:18;100342.97;;;14.51;100.00
56456;BME280;42354;53.218;6.564;2022-09-09T03:30:44;100347.41;;;14.52;100.00
56456;BME280;42354;53.218;6.564;2022-09-09T03:33:09;100347.53;;;14.51;100.00
56456;BME280;42354;53.218;6.564;2022-09-09T03:35:35;100341.97;;;14.52;100.00
56456;BME280;42354;53.218;6.564;2022-09-09T03:38:01;100350.13;;;14.52;100.00
56456;BME280;42354;53.218;6.564;2022-09-09T03:40:26;100344.81;;;14.51;100.00
56456;BME280;42354;53.218;6.564;2022-09-09T03:42:52;100348.28;;;14.53;100.00
56456;BME280;42354;53.218;6.564;2022-09-09T03:45:17;100343.72;;;14.54;100.00
56456;BME280;42354;53.218;6.564;2022-09-09T03:47:43;100350.88;;;14.55;100.00
56456;BME280;42354;53.218;6.564;2022-09-09T03:50:09;100347.16;;;14.56;100.00
56456;BME280;42354;53.218;6.564;2022-09-09T03:52:36;100347.91;;;14.58;100.00
56456;BME280;42354;53.218;6.564;2022-09-09T03:55:02;100347.03;;;14.57;100.00
56456;BME280;42354;53.218;6.564;2022-09-09T03:57:28;100344.94;;;14.61;100.00
56456;BME280;42354;53.218;6.564;2022-09-09T03:59:55;100356.31;;;14.66;100.00
56456;BME280;42354;53.218;6.564;2022-09-09T04:02:20;100356.19;;;14.67;100.00
56456;BME280;42354;53.218;6.564;2022-09-09T04:04:46;100361.25;;;14.72;100.00
56456;BME280;42354;53.218;6.564;2022-09-09T04:07:11;100351.13;;;14.74;100.00
56456;BME280;42354;53.218;6.564;2022-09-09T04:09:37;100349.78;;;14.79;100.00
56456;BME280;42354;53.218;6.564;2022-09-09T04:12:03;100351.38;;;14.82;100.00
56456;BME280;42354;53.218;6.564;2022-09-09T04:14:29;100355.56;;;14.86;100.00
56456;BME280;42354;53.218;6.564;2022-09-09T04:16:55;100346.19;;;14.90;100.00
56456;BME280;42354;53.218;6.564;2022-09-09T04:19:22;100352.47;;;14.91;100.00
56456;BME280;42354;53.218;6.564;2022-09-09T04:21:48;100354.81;;;14.95;100.00
56456;BME280;42354;53.218;6.564;2022-09-09T04:24:17;100352.00;;;14.97;100.00
56456;BME280;42354;53.218;6.564;2022-09-09T04:26:42;100353.72;;;14.98;100.00
56456;BME280;42354;53.218;6.564;2022-09-09T04:29:08;100352.00;;;14.97;100.00
56456;BME280;42354;53.218;6.564;2022-09-09T04:31:33;100353.72;;;14.98;100.00
56456;BME280;42354;53.218;6.564;2022-09-09T04:33:59;100358.28;;;14.97;100.00
56456;BME280;42354;53.218;6.564;2022-09-09T04:36:31;100359.28;;;14.96;100.00
56456;BME280;42354;53.218;6.564;2022-09-09T04:38:57;100353.72;;;14.98;100.00
56456;BME280;42354;53.218;6.564;2022-09-09T04:41:22;100367.41;;;14.96;100.00
56456;BME280;42354;53.218;6.564;2022-09-09T04:43:49;100363.72;;;14.97;100.00
56456;BME280;42354;53.218;6.564;2022-09-09T04:46:15;100362.84;;;14.97;100.00
56456;BME280;42354;53.218;6.564;2022-09-09T04:48:42;100362.00;;;14.96;100.00
56456;BME280;42354;53.218;6.564;2022-09-09T04:51:09;100357.53;;;14.95;100.00
56456;BME280;42354;53.218;6.564;2022-09-09T04:53:36;100354.81;;;14.95;100.00
56456;BME280;42354;53.218;6.564;2022-09-09T04:56:05;100353.84;;;14.96;100.00
56456;BME280;42354;53.218;6.564;2022-09-09T04:58:31;100364.81;;;14.95;100.00
56456;BME280;42354;53.218;6.564;2022-09-09T05:01:23;100358.78;;;14.91;100.00
56456;BME280;42354;53.218;6.564;2022-09-09T05:03:50;100352.38;;;14.92;100.00
56456;BME280;42354;53.218;6.564;2022-09-09T05:06:19;100357.66;;;14.94;100.00
56456;BME280;42354;53.218;6.564;2022-09-09T05:08:45;100364.81;;;14.95;100.00
56456;BME280;42354;53.218;6.564;2022-09-09T05:11:19;100368.16;;;14.87;100.00
56456;BME280;42354;53.218;6.564;2022-09-09T05:13:46;100367.78;;;14.92;100.00
56456;BME280;42354;53.218;6.564;2022-09-09T05:16:12;100366.06;;;14.91;100.00
56456;BME280;42354;53.218;6.564;2022-09-09T05:18:39;100364.47;;;14.88;100.00
56456;BME280;42354;53.218;6.564;2022-09-09T05:21:04;100367.06;;;14.90;100.00
56456;BME280;42354;53.218;6.564;2022-09-09T05:23:31;100367.06;;;14.90;100.00
56456;BME280;42354;53.218;6.564;2022-09-09T05:25:59;100363.47;;;14.89;100.00
56456;BME280;42354;53.218;6.564;2022-09-09T05:28:25;100370.50;;;14.92;100.00
56456;BME280;42354;53.218;6.564;2022-09-09T05:30:58;100362.47;;;14.90;100.00
56456;BME280;42354;53.218;6.564;2022-09-09T05:33:26;100363.47;;;14.89;100.00
56456;BME280;42354;53.218;6.564;2022-09-09T05:36:01;100362.59;;;14.89;100.00
56456;BME280;42354;53.218;6.564;2022-09-09T05:38:29;100366.19;;;14.89;100.00
56456;BME280;42354;53.218;6.564;2022-09-09T05:40:55;100368.78;;;14.91;100.00
56456;BME280;42354;53.218;6.564;2022-09-09T05:43:22;100361.75;;;14.88;100.00
56456;BME280;42354;53.218;6.564;2022-09-09T05:45:58;100361.63;;;14.90;100.00
56456;BME280;42354;53.218;6.564;2022-09-09T05:48:28;100366.31;;;14.88;100.00
56456;BME280;42354;53.218;6.564;2022-09-09T05:50:53;100376.19;;;14.89;100.00
56456;BME280;42354;53.218;6.564;2022-09-09T05:53:19;100374.22;;;14.91;100.00
56456;BME280;42354;53.218;6.564;2022-09-09T05:55:45;100375.06;;;14.91;100.00
56456;BME280;42354;53.218;6.564;2022-09-09T05:58:11;100371.13;;;14.95;100.00
56456;BME280;42354;53.218;6.564;2022-09-09T06:00:36;100370.13;;;14.96;100.00
56456;BME280;42354;53.218;6.564;2022-09-09T06:03:01;100377.16;;;14.99;100.00
56456;BME280;42354;53.218;6.564;2022-09-09T06:05:27;100377.28;;;14.97;100.00
56456;BME280;42354;53.218;6.564;2022-09-09T06:07:53;100377.16;;;14.99;100.00
56456;BME280;42354;53.218;6.564;2022-09-09T06:10:19;100374.22;;;15.02;100.00
56456;BME280;42354;53.218;6.564;2022-09-09T06:12:44;100378.28;;;15.07;100.00
56456;BME280;42354;53.218;6.564;2022-09-09T06:15:09;100370.88;;;15.09;100.00
56456;BME280;42354;53.218;6.564;2022-09-09T06:17:35;100374.19;;;15.13;100.00
56456;BME280;42354;53.218;6.564;2022-09-09T06:20:00;100383.72;;;15.19;100.00
56456;BME280;42354;53.218;6.564;2022-09-09T06:22:26;100380.88;;;15.20;100.00
56456;BME280;42354;53.218;6.564;2022-09-09T06:24:51;100386.06;;;15.23;100.00
56456;BME280;42354;53.218;6.564;2022-09-09T06:27:16;100389.50;;;15.25;100.00
56456;BME280;42354;53.218;6.564;2022-09-09T06:29:42;100390.50;;;15.24;100.00
56456;BME280;42354;53.218;6.564;2022-09-09T06:32:07;100379.63;;;15.24;100.00
56456;BME280;42354;53.218;6.564;2022-09-09T06:34:33;100385.41;;;15.31;100.00
56456;BME280;42354;53.218;6.564;2022-09-09T06:36:59;100377.75;;;15.36;100.00
56456;BME280;42354;53.218;6.564;2022-09-09T06:39:24;100384.06;;;15.36;100.00
56456;BME280;42354;53.218;6.564;2022-09-09T06:41:51;100387.38;;;15.40;100.00
56456;BME280;42354;53.218;6.564;2022-09-09T06:44:18;100390.72;;;15.43;100.00
56456;BME280;42354;53.218;6.564;2022-09-09T06:46:44;100389.09;;;15.52;100.00
56456;BME280;42354;53.218;6.564;2022-09-09T06:49:12;100383.28;;;15.57;100.00
56456;BME280;42354;53.218;6.564;2022-09-09T06:51:38;100387.03;;;15.67;100.00
56456;BME280;42354;53.218;6.564;2022-09-09T06:54:08;100383.78;;;15.73;100.00
56456;BME280;42354;53.218;6.564;2022-09-09T06:56:39;100383.16;;;15.81;100.00
56456;BME280;42354;53.218;6.564;2022-09-09T06:59:08;100387.06;;;15.88;100.00
56456;BME280;42354;53.218;6.564;2022-09-09T07:01:36;100387.41;;;15.94;100.00
56456;BME280;42354;53.218;6.564;2022-09-09T07:04:04;100384.66;;;16.05;100.00
56456;BME280;42354;53.218;6.564;2022-09-09T07:06:38;100387.72;;;16.12;100.00
56456;BME280;42354;53.218;6.564;2022-09-09T07:09:06;100391.63;;;16.19;100.00
56456;BME280;42354;53.218;6.564;2022-09-09T07:11:36;100384.59;;;16.17;100.00
56456;BME280;42354;53.218;6.564;2022-09-09T07:14:03;100385.28;;;16.30;100.00
56456;BME280;42354;53.218;6.564;2022-09-09T07:16:29;100392.91;;;16.36;100.00
56456;BME280;42354;53.218;6.564;2022-09-09T07:18:56;100391.53;;;16.41;100.00
56456;BME280;42354;53.218;6.564;2022-09-09T07:21:23;100404.00;;;16.44;100.00
56456;BME280;42354;53.218;6.564;2022-09-09T07:23:49;100399.88;;;16.50;100.00
56456;BME280;42354;53.218;6.564;2022-09-09T07:26:20;100407.53;;;16.56;100.00
56456;BME280;42354;53.218;6.564;2022-09-09T07:28:46;100407.78;;;16.53;100.00
56456;BME280;42354;53.218;6.564;2022-09-09T07:31:26;100404.06;;;16.54;100.00
56456;BME280;42354;53.218;6.564;2022-09-09T07:33:52;100398.59;;;16.65;100.00
56456;BME280;42354;53.218;6.564;2022-09-09T07:36:29;100396.06;;;16.73;100.00
56456;BME280;42354;53.218;6.564;2022-09-09T07:38:57;100397.25;;;16.80;100.00
56456;BME280;42354;53.218;6.564;2022-09-09T07:41:28;100395.84;;;16.86;100.00
56456;BME280;42354;53.218;6.564;2022-09-09T07:43:55;100400.59;;;16.93;100.00
56456;BME280;42354;53.218;6.564;2022-09-09T07:46:22;100403.06;;;16.96;100.00
56456;BME280;42354;53.218;6.564;2022-09-09T07:48:50;100405.25;;;17.02;100.00
56456;BME280;42354;53.218;6.564;2022-09-09T07:51:37;100407.56;;;17.07;100.00
56456;BME280;42354;53.218;6.564;2022-09-09T07:54:06;100409.75;;;17.13;100.00
56456;BME280;42354;53.218;6.564;2022-09-09T07:56:32;100412.38;;;17.24;100.00
56456;BME280;42354;53.218;6.564;2022-09-09T07:58:59;100411.13;;;17.38;100.00
56456;BME280;42354;53.218;6.564;2022-09-09T08:01:31;100413.03;;;17.47;100.00
56456;BME280;42354;53.218;6.564;2022-09-09T08:04:01;100414.81;;;17.67;100.00
56456;BME280;42354;53.218;6.564;2022-09-09T08:06:29;100417.16;;;17.91;99.45
56456;BME280;42354;53.218;6.564;2022-09-09T08:08:55;100416.59;;;17.97;98.53
56456;BME280;42354;53.218;6.564;2022-09-09T08:11:23;100410.56;;;18.13;97.18
56456;BME280;42354;53.218;6.564;2022-09-09T08:13:50;100416.91;;;18.23;96.10
56456;BME280;42354;53.218;6.564;2022-09-09T08:16:18;100410.56;;;18.32;95.59
56456;BME280;42354;53.218;6.564;2022-09-09T08:18:44;100406.41;;;18.48;94.89
56456;BME280;42354;53.218;6.564;2022-09-09T08:21:15;100408.41;;;18.55;93.89
56456;BME280;42354;53.218;6.564;2022-09-09T08:23:43;100416.59;;;18.75;93.91
56456;BME280;42354;53.218;6.564;2022-09-09T08:28:36;100418.19;;;19.14;90.75
56456;BME280;42354;53.218;6.564;2022-09-09T08:31:12;100424.31;;;19.36;88.34
56456;BME280;42354;53.218;6.564;2022-09-09T08:33:38;100423.63;;;19.61;88.53
56456;BME280;42354;53.218;6.564;2022-09-09T08:36:05;100429.91;;;19.71;86.77
56456;BME280;42354;53.218;6.564;2022-09-09T08:38:31;100424.00;;;19.93;85.50
56456;BME280;42354;53.218;6.564;2022-09-09T08:43:33;100434.41;;;20.25;83.73
56456;BME280;42354;53.218;6.564;2022-09-09T08:46:22;100436.84;;;20.28;82.90
56456;BME280;42354;53.218;6.564;2022-09-09T08:49:19;100443.88;;;20.13;81.47
56456;BME280;42354;53.218;6.564;2022-09-09T08:51:48;100439.13;;;20.15;83.07
56456;BME280;42354;53.218;6.564;2022-09-09T08:54:14;100434.34;;;20.17;82.23
56456;BME280;42354;53.218;6.564;2022-09-09T08:56:40;100423.38;;;20.17;82.53
56456;BME280;42354;53.218;6.564;2022-09-09T08:59:09;100428.31;;;20.14;81.88
56456;BME280;42354;53.218;6.564;2022-09-09T09:07:52;100449.19;;;19.97;81.40
56456;BME280;42354;53.218;6.564;2022-09-09T09:12:32;100449.91;;;19.72;82.90
56456;BME280;42354;53.218;6.564;2022-09-09T09:15:00;100448.25;;;19.61;83.92
56456;BME280;42354;53.218;6.564;2022-09-09T09:17:28;100453.00;;;19.59;84.02
56456;BME280;42354;53.218;6.564;2022-09-09T09:19:56;100446.78;;;19.67;84.52
56456;BME280;42354;53.218;6.564;2022-09-09T09:27:43;100454.16;;;19.84;83.87
56456;BME280;42354;53.218;6.564;2022-09-09T09:32:44;100463.13;;;20.21;82.04
56456;BME280;42354;53.218;6.564;2022-09-09T09:35:17;100459.84;;;20.36;81.81
56456;BME280;42354;53.218;6.564;2022-09-09T09:37:42;100465.22;;;20.55;80.77
56456;BME280;42354;53.218;6.564;2022-09-09T09:42:48;100463.72;;;20.60;80.00
56456;BME280;42354;53.218;6.564;2022-09-09T09:45:35;100460.03;;;20.52;80.46
56456;BME280;42354;53.218;6.564;2022-09-09T09:48:10;100469.03;;;20.62;80.14
56456;BME280;42354;53.218;6.564;2022-09-09T09:50:48;100463.88;;;20.59;80.20
56456;BME280;42354;53.218;6.564;2022-09-09T09:53:22;100465.97;;;20.65;80.22
56456;BME280;42354;53.218;6.564;2022-09-09T09:56:05;100458.31;;;20.86;79.58
56456;BME280;42354;53.218;6.564;2022-09-09T09:58:49;100458.91;;;20.98;78.17
56456;BME280;42354;53.218;6.564;2022-09-09T10:03:53;100465.72;;;20.94;76.69
56456;BME280;42354;53.218;6.564;2022-09-09T10:06:30;100465.88;;;20.92;75.67
56456;BME280;42354;53.218;6.564;2022-09-09T10:08:55;100470.19;;;20.95;76.54
56456;BME280;42354;53.218;6.564;2022-09-09T10:14:25;100471.69;;;20.89;75.92
56456;BME280;42354;53.218;6.564;2022-09-09T10:19:35;100465.75;;;21.46;73.64
56456;BME280;42354;53.218;6.564;2022-09-09T10:22:19;100470.56;;;21.52;72.38
56456;BME280;42354;53.218;6.564;2022-09-09T10:27:56;100476.78;;;21.28;74.00
56456;BME280;42354;53.218;6.564;2022-09-09T10:33:13;100466.59;;;21.20;73.56
56456;BME280;42354;53.218;6.564;2022-09-09T10:36:14;100486.63;;;20.77;74.47
56456;BME280;42354;53.218;6.564;2022-09-09T10:38:57;100484.06;;;20.76;74.59
56456;BME280;42354;53.218;6.564;2022-09-09T10:52:28;100472.31;;;20.83;72.45
56456;BME280;42354;53.218;6.564;2022-09-09T10:55:00;100475.59;;;20.87;71.53
56456;BME280;42354;53.218;6.564;2022-09-09T10:57:54;100474.81;;;20.95;69.91
56456;BME280;42354;53.218;6.564;2022-09-09T11:00:30;100471.53;;;21.17;70.02
56456;BME280;42354;53.218;6.564;2022-09-09T11:03:02;100468.03;;;21.59;69.59
56456;BME280;42354;53.218;6.564;2022-09-09T11:05:58;100466.34;;;22.08;66.83
56456;BME280;42354;53.218;6.564;2022-09-09T11:08:31;100464.19;;;22.52;65.84
56456;BME280;42354;53.218;6.564;2022-09-09T11:11:19;100472.78;;;22.49;63.62
56456;BME280;42354;53.218;6.564;2022-09-09T11:13:55;100467.47;;;22.47;64.25
56456;BME280;42354;53.218;6.564;2022-09-09T11:16:39;100471.25;;;22.46;62.32
56456;BME280;42354;53.218;6.564;2022-09-09T11:21:46;100470.03;;;22.65;61.78
56456;BME280;42354;53.218;6.564;2022-09-09T11:24:19;100466.63;;;22.96;61.03
56456;BME280;42354;53.218;6.564;2022-09-09T11:27:12;100467.25;;;23.30;58.57
56456;BME280;42354;53.218;6.564;2022-09-09T11:30:00;100472.38;;;23.58;57.48
56456;BME280;42354;53.218;6.564;2022-09-09T11:38:46;100475.66;;;24.54;54.19
56456;BME280;42354;53.218;6.564;2022-09-09T11:41:13;100473.88;;;24.61;54.70
56456;BME280;42354;53.218;6.564;2022-09-09T11:46:05;100468.38;;;24.38;54.96
56456;BME280;42354;53.218;6.564;2022-09-09T11:51:28;100467.78;;;24.20;55.82
56456;BME280;42354;53.218;6.564;2022-09-09T11:53:56;100460.19;;;23.91;56.30
56456;BME280;42354;53.218;6.564;2022-09-09T12:01:43;100463.41;;;23.64;57.69
56456;BME280;42354;53.218;6.564;2022-09-09T12:04:35;100467.53;;;23.68;58.01
56456;BME280;42354;53.218;6.564;2022-09-09T12:09:45;100465.38;;;23.86;57.64
56456;BME280;42354;53.218;6.564;2022-09-09T12:17:20;100458.94;;;23.63;55.62
56456;BME280;42354;53.218;6.564;2022-09-09T12:20:00;100461.72;;;23.46;56.54
56456;BME280;42354;53.218;6.564;2022-09-09T12:22:50;100453.16;;;23.25;57.42
56456;BME280;42354;53.218;6.564;2022-09-09T12:25:26;100457.56;;;23.59;56.80
56456;BME280;42354;53.218;6.564;2022-09-09T12:33:18;100455.00;;;23.49;56.74
56456;BME280;42354;53.218;6.564;2022-09-09T12:35:55;100455.34;;;23.54;56.29
56456;BME280;42354;53.218;6.564;2022-09-09T12:38:31;100461.19;;;23.51;56.81
56456;BME280;42354;53.218;6.564;2022-09-09T12:40:58;100456.22;;;23.55;56.51
56456;BME280;42354;53.218;6.564;2022-09-09T12:43:25;100459.28;;;23.52;55.88
56456;BME280;42354;53.218;6.564;2022-09-09T12:45:56;100458.06;;;23.62;56.06
56456;BME280;42354;53.218;6.564;2022-09-09T12:48:44;100451.28;;;23.81;55.32
56456;BME280;42354;53.218;6.564;2022-09-09T12:51:29;100446.81;;;23.80;54.64
56456;BME280;42354;53.218;6.564;2022-09-09T12:53:56;100448.41;;;23.66;55.59
56456;BME280;42354;53.218;6.564;2022-09-09T12:56:32;100449.50;;;23.41;56.78
56456;BME280;42354;53.218;6.564;2022-09-09T12:58:58;100443.50;;;23.37;57.31
56456;BME280;42354;53.218;6.564;2022-09-09T13:01:29;100438.53;;;23.33;57.21
56456;BME280;42354;53.218;6.564;2022-09-09T13:03:55;100446.22;;;23.45;57.07
56456;BME280;42354;53.218;6.564;2022-09-09T13:06:24;100445.78;;;23.81;56.09
56456;BME280;42354;53.218;6.564;2022-09-09T13:08:51;100441.75;;;24.23;54.75
56456;BME280;42354;53.218;6.564;2022-09-09T13:11:21;100437.84;;;24.63;53.08
56456;BME280;42354;53.218;6.564;2022-09-09T13:13:54;100435.81;;;24.80;52.11
56456;BME280;42354;53.218;6.564;2022-09-09T13:16:32;100428.84;;;24.69;52.47
56456;BME280;42354;53.218;6.564;2022-09-09T13:18:59;100425.84;;;24.33;53.59
56456;BME280;42354;53.218;6.564;2022-09-09T13:21:36;100422.06;;;24.03;53.82
56456;BME280;42354;53.218;6.564;2022-09-09T13:24:04;100427.44;;;23.96;53.66
56456;BME280;42354;53.218;6.564;2022-09-09T13:26:31;100423.91;;;24.10;53.35
56456;BME280;42354;53.218;6.564;2022-09-09T13:29:14;100425.72;;;23.95;53.86
56456;BME280;42354;53.218;6.564;2022-09-09T13:31:43;100425.09;;;23.85;54.66
56456;BME280;42354;53.218;6.564;2022-09-09T13:34:29;100415.06;;;23.61;55.60
56456;BME280;42354;53.218;6.564;2022-09-09T13:37:22;100426.28;;;23.43;55.88
56456;BME280;42354;53.218;6.564;2022-09-09T13:39:52;100421.50;;;23.29;56.88
56456;BME280;42354;53.218;6.564;2022-09-09T13:42:26;100408.31;;;23.17;57.15
56456;BME280;42354;53.218;6.564;2022-09-09T13:44:53;100411.94;;;23.09;57.99
56456;BME280;42354;53.218;6.564;2022-09-09T13:47:28;100410.06;;;23.01;57.78
56456;BME280;42354;53.218;6.564;2022-09-09T13:49:54;100408.22;;;22.86;58.71
56456;BME280;42354;53.218;6.564;2022-09-09T13:52:19;100408.19;;;22.69;59.50
56456;BME280;42354;53.218;6.564;2022-09-09T13:54:49;100411.81;;;22.45;59.20
56456;BME280;42354;53.218;6.564;2022-09-09T13:57:20;100416.59;;;22.35;59.27
56456;BME280;42354;53.218;6.564;2022-09-09T13:59:46;100417.13;;;22.39;59.84
56456;BME280;42354;53.218;6.564;2022-09-09T14:02:12;100406.13;;;22.71;59.53
56456;BME280;42354;53.218;6.564;2022-09-09T14:04:39;100411.81;;;22.94;57.98
56456;BME280;42354;53.218;6.564;2022-09-09T14:07:14;100401.78;;;23.09;56.04
56456;BME280;42354;53.218;6.564;2022-09-09T14:09:40;100404.19;;;23.12;55.35
56456;BME280;42354;53.218;6.564;2022-09-09T14:12:13;100403.13;;;23.22;54.89
56456;BME280;42354;53.218;6.564;2022-09-09T14:14:42;100409.34;;;23.15;55.57
56456;BME280;42354;53.218;6.564;2022-09-09T14:17:09;100420.19;;;23.09;56.00
56456;BME280;42354;53.218;6.564;2022-09-09T14:19:35;100422.47;;;22.81;57.49
56456;BME280;42354;53.218;6.564;2022-09-09T14:22:02;100411.47;;;22.48;58.50
56456;BME280;42354;53.218;6.564;2022-09-09T14:24:27;100420.88;;;22.22;59.74
56456;BME280;42354;53.218;6.564;2022-09-09T14:26:53;100422.97;;;22.28;60.30
56456;BME280;42354;53.218;6.564;2022-09-09T14:29:19;100418.66;;;22.33;60.31
56456;BME280;42354;53.218;6.564;2022-09-09T14:31:45;100407.34;;;22.36;60.44
56456;BME280;42354;53.218;6.564;2022-09-09T14:34:12;100415.06;;;22.49;59.99
56456;BME280;42354;53.218;6.564;2022-09-09T14:36:41;100409.75;;;22.56;60.28
56456;BME280;42354;53.218;6.564;2022-09-09T14:39:07;100413.88;;;22.60;60.49
56456;BME280;42354;53.218;6.564;2022-09-09T14:41:32;100419.53;;;22.50;60.94
56456;BME280;42354;53.218;6.564;2022-09-09T14:43:58;100429.66;;;22.33;61.52
56456;BME280;42354;53.218;6.564;2022-09-09T14:46:24;100431.88;;;22.13;62.36